createdAt,value
2023-04-18T00:02:46.026Z,8.60
2023-04-18T00:05:32.315Z,8.50
2023-04-18T00:08:18.360Z,8.50
2023-04-18T00:11:04.371Z,8.40
2023-04-18T00:13:50.291Z,8.40
2023-04-18T00:16:38.094Z,8.40
2023-04-18T00:19:24.355Z,8.30
2023-04-18T00:22:11.106Z,8.30
2023-04-18T00:24:57.332Z,8.20
2023-04-18T00:27:43.565Z,8.20
2023-04-18T00:30:29.498Z,8.20
2023-04-18T00:33:16.224Z,8.20
2023-04-18T00:36:03.426Z,8.10
2023-04-18T00:38:49.582Z,8.10
2023-04-18T00:41:35.709Z,8.10
2023-04-18T00:44:21.721Z,8.10
2023-04-18T00:47:07.951Z,8.10
2023-04-18T00:49:54.873Z,8.00
2023-04-18T00:52:41.587Z,8.00
2023-04-18T00:55:29.517Z,8.00
2023-04-18T00:58:15.935Z,8.00
2023-04-18T01:01:02.079Z,8.00
2023-04-18T01:03:48.540Z,8.00
2023-04-18T01:06:36.278Z,8.00
2023-04-18T01:09:24.687Z,8.00
2023-04-18T01:12:11.351Z,7.90
2023-04-18T01:14:57.337Z,7.90
2023-04-18T01:17:43.530Z,7.90
2023-04-18T01:20:32.339Z,7.90
2023-04-18T01:23:19.301Z,7.90
2023-04-18T01:26:05.777Z,7.90
2023-04-18T01:28:52.035Z,7.90
2023-04-18T01:31:39.330Z,8.00
2023-04-18T01:34:26.666Z,8.00
2023-04-18T01:37:12.836Z,8.10
2023-04-18T01:40:00.002Z,8.10
2023-04-18T01:42:46.315Z,8.10
2023-04-18T01:45:32.301Z,8.10
2023-04-18T01:48:18.189Z,8.10
2023-04-18T01:51:04.463Z,8.10
2023-04-18T01:53:51.021Z,8.10
2023-04-18T01:56:37.545Z,8.10
2023-04-18T01:59:23.464Z,8.10
2023-04-18T02:02:11.254Z,8.10
2023-04-18T02:04:57.182Z,8.10
2023-04-18T02:07:43.799Z,8.10
2023-04-18T02:10:29.795Z,8.10
2023-04-18T02:13:15.719Z,8.10
2023-04-18T02:16:01.682Z,8.10
2023-04-18T02:18:49.815Z,8.10
2023-04-18T02:21:35.950Z,8.10
2023-04-18T02:24:21.954Z,8.10
2023-04-18T02:27:07.995Z,8.00
2023-04-18T02:29:54.181Z,8.00
2023-04-18T02:32:40.404Z,8.00
2023-04-18T02:35:27.335Z,8.00
2023-04-18T02:38:13.819Z,8.00
2023-04-18T02:41:00.198Z,8.00
2023-04-18T02:43:46.206Z,8.00
2023-04-18T02:46:34.929Z,8.00
2023-04-18T02:49:23.501Z,8.00
2023-04-18T02:52:09.866Z,7.90
2023-04-18T02:54:56.229Z,7.90
2023-04-18T02:57:45.856Z,7.90
2023-04-18T03:00:54.341Z,7.90
2023-04-18T03:03:59.304Z,7.90
2023-04-18T03:07:05.729Z,7.90
2023-04-18T03:09:55.359Z,7.90
2023-04-18T03:12:47.702Z,7.90
2023-04-18T03:15:35.969Z,7.90
2023-04-18T03:18:22.596Z,7.80
2023-04-18T03:21:09.611Z,7.80
2023-04-18T03:23:56.185Z,7.80
2023-04-18T03:26:42.421Z,7.80
2023-04-18T03:29:29.403Z,7.70
2023-04-18T03:32:17.277Z,7.70
2023-04-18T03:35:03.544Z,7.60
2023-04-18T03:37:50.017Z,7.50
2023-04-18T03:40:44.489Z,7.50
2023-04-18T03:43:37.917Z,7.50
2023-04-18T03:46:24.629Z,7.50
2023-04-18T03:49:13.254Z,7.50
2023-04-18T03:51:59.370Z,7.60
2023-04-18T03:54:45.371Z,7.50
2023-04-18T03:57:32.329Z,7.50
2023-04-18T04:00:19.764Z,7.50
2023-04-18T04:03:19.653Z,7.50
2023-04-18T04:06:06.859Z,7.50
2023-04-18T04:08:52.989Z,7.50
2023-04-18T04:11:43.404Z,7.50
2023-04-18T04:14:32.672Z,7.50
2023-04-18T04:17:19.175Z,7.50
2023-04-18T04:20:06.556Z,7.40
2023-04-18T04:22:53.989Z,7.40
2023-04-18T04:25:41.457Z,7.40
2023-04-18T04:28:38.927Z,7.40
2023-04-18T04:31:26.433Z,7.40
2023-04-18T04:34:13.181Z,7.40
2023-04-18T04:37:00.829Z,7.40
2023-04-18T04:39:48.249Z,7.40
2023-04-18T04:42:54.503Z,7.30
2023-04-18T04:45:52.535Z,7.30
2023-04-18T04:48:43.213Z,7.30
2023-04-18T04:51:29.255Z,7.30
2023-04-18T04:54:16.351Z,7.30
2023-04-18T04:57:03.250Z,7.40
2023-04-18T04:59:49.825Z,7.40
2023-04-18T05:02:36.295Z,7.40
2023-04-18T05:05:22.751Z,7.30
2023-04-18T05:08:09.375Z,7.40
2023-04-18T05:10:55.957Z,7.40
2023-04-18T05:13:42.019Z,7.40
2023-04-18T05:16:28.100Z,7.40
2023-04-18T05:19:14.023Z,7.50
2023-04-18T05:22:00.080Z,7.50
2023-04-18T05:24:46.917Z,7.50
2023-04-18T05:27:32.826Z,7.50
2023-04-18T05:30:18.873Z,7.50
2023-04-18T05:33:04.960Z,7.60
2023-04-18T05:35:50.935Z,7.60
2023-04-18T05:38:36.950Z,7.70
2023-04-18T05:41:23.063Z,7.80
2023-04-18T05:44:09.304Z,7.80
2023-04-18T05:46:55.523Z,7.80
2023-04-18T05:49:41.373Z,7.90
2023-04-18T05:52:27.269Z,8.00
2023-04-18T05:55:13.194Z,8.10
2023-04-18T05:57:59.226Z,8.20
2023-04-18T06:00:45.118Z,8.20
2023-04-18T06:03:31.628Z,8.30
2023-04-18T06:06:18.651Z,8.40
2023-04-18T06:09:05.050Z,8.50
2023-04-18T06:11:51.280Z,8.50
2023-04-18T06:14:37.196Z,8.50
2023-04-18T06:17:23.301Z,8.60
2023-04-18T06:20:10.190Z,8.60
2023-04-18T06:22:56.438Z,8.70
2023-04-18T06:25:43.016Z,8.80
2023-04-18T06:28:29.091Z,9.00
2023-04-18T06:31:15.279Z,9.00
2023-04-18T06:34:01.304Z,9.10
2023-04-18T06:36:47.404Z,9.10
2023-04-18T06:39:33.635Z,9.10
2023-04-18T06:42:22.027Z,9.30
2023-04-18T06:45:10.716Z,9.40
2023-04-18T06:47:59.619Z,9.50
2023-04-18T06:50:46.242Z,9.50
2023-04-18T06:53:32.338Z,9.60
2023-04-18T06:56:20.447Z,9.60
2023-04-18T06:59:06.727Z,9.70
2023-04-18T07:01:52.756Z,9.90
2023-04-18T07:04:39.222Z,9.90
2023-04-18T07:07:26.445Z,9.90
2023-04-18T07:10:12.702Z,10.00
2023-04-18T07:12:58.820Z,10.20
2023-04-18T07:15:44.939Z,10.40
2023-04-18T07:18:37.933Z,10.40
2023-04-18T07:21:24.431Z,10.30
2023-04-18T07:24:11.669Z,10.20
2023-04-18T07:26:58.062Z,10.20
2023-04-18T07:29:44.275Z,10.20
2023-04-18T07:32:30.289Z,10.20
2023-04-18T07:35:16.824Z,10.30
2023-04-18T07:38:02.812Z,10.40
2023-04-18T07:40:59.665Z,10.60
2023-04-18T07:43:45.912Z,10.70
2023-04-18T07:46:32.533Z,10.40
2023-04-18T07:49:19.195Z,10.40
2023-04-18T07:52:05.448Z,10.30
2023-04-18T07:54:51.456Z,10.20
2023-04-18T07:57:37.267Z,10.20
2023-04-18T08:00:23.294Z,10.20
2023-04-18T08:03:13.424Z,10.30
2023-04-18T08:05:59.996Z,10.30
2023-04-18T08:08:46.447Z,10.40
2023-04-18T08:11:33.893Z,10.50
2023-04-18T08:14:20.070Z,10.50
2023-04-18T08:17:06.169Z,10.40
2023-04-18T08:19:52.205Z,10.40
2023-04-18T08:22:49.988Z,10.40
2023-04-18T08:25:44.189Z,10.50
2023-04-18T08:28:30.470Z,10.70
2023-04-18T08:31:17.142Z,10.90
2023-04-18T08:34:05.061Z,11.20
2023-04-18T08:36:51.657Z,11.50
2023-04-18T08:39:37.733Z,11.50
2023-04-18T08:42:24.256Z,11.50
2023-04-18T08:45:12.403Z,11.40
2023-04-18T08:48:01.413Z,11.50
2023-04-18T08:50:47.947Z,11.50
2023-04-18T08:53:34.296Z,11.50
2023-04-18T08:56:25.980Z,11.40
2023-04-18T08:59:12.877Z,11.30
2023-04-18T09:02:01.439Z,11.30
2023-04-18T09:04:53.791Z,11.30
2023-04-18T09:07:41.059Z,11.20
2023-04-18T09:10:31.041Z,11.30
2023-04-18T09:13:39.976Z,11.40
2023-04-18T09:16:27.838Z,11.40
2023-04-18T09:19:18.465Z,11.40
2023-04-18T09:22:04.955Z,11.40
2023-04-18T09:24:58.075Z,11.50
2023-04-18T09:27:44.271Z,11.60
2023-04-18T09:30:32.872Z,11.70
2023-04-18T09:33:34.299Z,11.80
2023-04-18T09:36:22.939Z,11.90
2023-04-18T09:39:09.392Z,12.10
2023-04-18T09:41:59.606Z,12.20
2023-04-18T09:45:05.306Z,12.20
2023-04-18T09:47:53.596Z,12.20
2023-04-18T09:50:41.661Z,12.10
2023-04-18T09:53:28.339Z,11.80
2023-04-18T09:56:43.795Z,11.80
2023-04-18T09:59:38.066Z,11.80
2023-04-18T10:02:28.361Z,11.80
2023-04-18T10:05:18.258Z,11.90
2023-04-18T10:08:07.947Z,11.90
2023-04-18T10:10:55.931Z,11.90
2023-04-18T10:13:44.419Z,12.00
2023-04-18T10:16:34.097Z,12.00
2023-04-18T10:19:26.149Z,12.20
2023-04-18T10:22:13.340Z,12.20
2023-04-18T10:24:59.318Z,12.40
2023-04-18T10:27:48.341Z,12.60
2023-04-18T10:30:40.497Z,12.80
2023-04-18T10:33:41.055Z,12.90
2023-04-18T10:36:28.900Z,13.10
2023-04-18T10:39:22.845Z,13.40
2023-04-18T10:42:09.075Z,13.50
2023-04-18T10:45:21.218Z,13.50
2023-04-18T10:48:29.540Z,13.40
2023-04-18T10:51:21.036Z,13.40
2023-04-18T10:54:13.114Z,13.40
2023-04-18T10:57:01.867Z,13.40
2023-04-18T10:59:52.515Z,13.40
2023-04-18T11:02:40.048Z,13.60
2023-04-18T11:05:28.709Z,13.80
2023-04-18T11:08:24.633Z,13.80
2023-04-18T11:11:11.479Z,13.50
2023-04-18T11:13:59.393Z,13.40
2023-04-18T11:16:45.822Z,13.10
2023-04-18T11:19:32.308Z,12.90
2023-04-18T11:22:19.263Z,12.90
2023-04-18T11:25:08.900Z,12.90
2023-04-18T11:27:55.802Z,12.80
2023-04-18T11:30:42.339Z,12.80
2023-04-18T11:33:29.428Z,12.80
2023-04-18T11:36:16.474Z,12.80
2023-04-18T11:39:02.936Z,12.70
2023-04-18T11:41:51.975Z,12.50
2023-04-18T11:44:39.965Z,12.50
2023-04-18T11:47:28.795Z,12.50
2023-04-18T11:50:15.015Z,12.40
2023-04-18T11:53:00.775Z,12.50
2023-04-18T11:55:56.447Z,12.60
2023-04-18T11:58:42.969Z,12.80
2023-04-18T12:01:28.822Z,13.00
2023-04-18T12:04:16.650Z,13.20
2023-04-18T12:07:03.649Z,13.30
2023-04-18T12:09:52.571Z,13.30
2023-04-18T12:12:51.954Z,13.30
2023-04-18T12:15:43.897Z,13.30
2023-04-18T12:18:29.907Z,13.40
2023-04-18T12:21:17.099Z,13.60
2023-04-18T12:24:15.622Z,13.50
2023-04-18T12:27:02.214Z,13.50
2023-04-18T12:29:48.519Z,13.60
2023-04-18T12:32:34.626Z,13.50
2023-04-18T12:35:21.977Z,13.40
2023-04-18T12:38:08.492Z,13.30
2023-04-18T12:40:54.836Z,13.20
2023-04-18T12:43:41.105Z,13.10
2023-04-18T12:46:27.654Z,12.90
2023-04-18T12:49:13.606Z,12.80
2023-04-18T12:51:59.565Z,12.70
2023-04-18T12:54:45.996Z,12.50
2023-04-18T12:57:32.193Z,12.50
2023-04-18T13:00:18.437Z,12.50
2023-04-18T13:03:06.209Z,12.50
2023-04-18T13:05:55.606Z,12.50
2023-04-18T13:08:42.683Z,12.60
2023-04-18T13:11:29.923Z,12.70
2023-04-18T13:14:16.238Z,12.80
2023-04-18T13:17:02.517Z,12.90
2023-04-18T13:19:49.017Z,12.90
2023-04-18T13:22:34.936Z,12.90
2023-04-18T13:25:21.692Z,12.70
2023-04-18T13:28:07.517Z,12.60
2023-04-18T13:30:53.382Z,12.50
2023-04-18T13:33:40.022Z,12.50
2023-04-18T13:36:27.955Z,12.40
2023-04-18T13:39:15.218Z,12.40
2023-04-18T13:42:04.680Z,12.40
2023-04-18T13:44:50.825Z,12.30
2023-04-18T13:47:37.399Z,12.30
2023-04-18T13:50:24.440Z,12.30
2023-04-18T13:53:10.708Z,12.30
2023-04-18T13:55:56.958Z,12.30
2023-04-18T13:58:43.161Z,12.10
2023-04-18T14:01:29.235Z,12.10
2023-04-18T14:04:16.138Z,12.00
2023-04-18T14:07:03.936Z,12.00
2023-04-18T14:09:51.225Z,11.80
2023-04-18T14:12:39.882Z,11.90
2023-04-18T14:15:26.132Z,11.80
2023-04-18T14:18:12.371Z,11.90
2023-04-18T14:20:59.293Z,11.90
2023-04-18T14:23:45.262Z,11.90
2023-04-18T14:26:31.303Z,11.90
2023-04-18T14:29:17.356Z,11.90
2023-04-18T14:32:03.847Z,11.90
2023-04-18T14:34:50.350Z,11.90
2023-04-18T14:37:36.918Z,11.80
2023-04-18T14:40:23.307Z,11.70
2023-04-18T14:43:09.229Z,11.60
2023-04-18T14:45:55.213Z,11.60
2023-04-18T14:48:41.579Z,11.60
2023-04-18T14:51:28.149Z,11.60
2023-04-18T14:54:14.340Z,11.60
2023-04-18T14:57:01.144Z,11.60
2023-04-18T14:59:47.579Z,11.40
2023-04-18T15:02:33.813Z,11.40
2023-04-18T15:05:23.643Z,11.40
2023-04-18T15:08:11.451Z,11.40
2023-04-18T15:10:57.422Z,11.40
2023-04-18T15:13:44.618Z,11.40
2023-04-18T15:16:32.085Z,11.40
2023-04-18T15:19:18.232Z,11.30
2023-04-18T15:22:04.247Z,11.30
2023-04-18T15:24:50.646Z,11.20
2023-04-18T15:27:36.870Z,11.30
2023-04-18T15:30:22.823Z,11.20
2023-04-18T15:33:08.848Z,11.00
2023-04-18T15:35:55.731Z,11.00
2023-04-18T15:38:42.892Z,11.00
2023-04-18T15:41:29.134Z,10.90
2023-04-18T15:44:15.261Z,11.00
2023-04-18T15:47:01.860Z,11.00
2023-04-18T15:49:47.898Z,11.00
2023-04-18T15:52:34.048Z,11.00
2023-04-18T15:55:20.250Z,11.00
2023-04-18T15:58:06.604Z,11.00
2023-04-18T16:00:52.779Z,11.00
2023-04-18T16:03:39.010Z,11.10
2023-04-18T16:06:26.531Z,11.10
2023-04-18T16:09:12.616Z,11.00
2023-04-18T16:11:59.162Z,11.00
2023-04-18T16:14:45.563Z,11.00
2023-04-18T16:17:31.448Z,11.00
2023-04-18T16:20:17.886Z,11.00
2023-04-18T16:23:03.919Z,11.00
2023-04-18T16:25:49.827Z,11.00
2023-04-18T16:28:38.595Z,11.00
2023-04-18T16:31:24.605Z,11.00
2023-04-18T16:34:10.461Z,11.10
2023-04-18T16:36:56.447Z,11.10
2023-04-18T16:39:42.257Z,11.10
2023-04-18T16:42:28.096Z,11.10
2023-04-18T16:45:14.174Z,11.10
2023-04-18T16:47:59.947Z,11.20
2023-04-18T16:50:45.985Z,11.20
2023-04-18T16:53:32.338Z,11.30
2023-04-18T16:56:18.556Z,11.40
2023-04-18T16:59:04.600Z,11.40
2023-04-18T17:01:50.996Z,11.40
2023-04-18T17:04:37.259Z,11.40
2023-04-18T17:07:23.142Z,11.40
2023-04-18T17:10:10.146Z,11.40
2023-04-18T17:12:56.645Z,11.40
2023-04-18T17:15:43.142Z,11.30
2023-04-18T17:18:29.489Z,11.30
2023-04-18T17:21:15.707Z,11.30
2023-04-18T17:24:03.878Z,11.20
2023-04-18T17:26:49.987Z,11.10
2023-04-18T17:29:36.628Z,11.10
2023-04-18T17:32:23.577Z,11.10
2023-04-18T17:35:09.988Z,11.00
2023-04-18T17:37:56.162Z,11.10
2023-04-18T17:40:42.561Z,11.00
2023-04-18T17:43:28.630Z,11.00
2023-04-18T17:46:14.967Z,11.00
2023-04-18T17:49:01.307Z,11.00
2023-04-18T17:51:47.242Z,11.00
2023-04-18T17:54:33.225Z,10.90
2023-04-18T17:57:19.196Z,10.90
2023-04-18T18:00:11.216Z,10.90
2023-04-18T18:03:01.803Z,10.90
2023-04-18T18:05:49.444Z,10.80
2023-04-18T18:08:35.675Z,10.80
2023-04-18T18:11:23.154Z,10.70
2023-04-18T18:14:09.424Z,10.80
2023-04-18T18:16:56.226Z,10.80
2023-04-18T18:19:42.419Z,10.70
2023-04-18T18:22:28.723Z,10.70
2023-04-18T18:25:15.068Z,10.70
2023-04-18T18:28:03.311Z,10.70
2023-04-18T18:30:49.533Z,10.70
2023-04-18T18:33:36.111Z,10.70
2023-04-18T18:36:21.874Z,10.80
2023-04-18T18:39:07.948Z,10.80
2023-04-18T18:41:54.024Z,10.80
2023-04-18T18:44:39.923Z,10.80
2023-04-18T18:47:26.163Z,10.80
2023-04-18T18:50:12.460Z,10.80
2023-04-18T18:52:58.567Z,10.80
2023-04-18T18:55:44.833Z,10.80
2023-04-18T18:58:30.833Z,10.70
2023-04-18T19:01:17.178Z,10.80
2023-04-18T19:04:03.967Z,10.70
2023-04-18T19:06:50.204Z,10.70
2023-04-18T19:09:37.046Z,10.60
2023-04-18T19:12:22.879Z,10.60
2023-04-18T19:15:09.591Z,10.60
2023-04-18T19:17:56.524Z,10.60
2023-04-18T19:20:43.017Z,10.60
2023-04-18T19:23:30.931Z,10.50
2023-04-18T19:26:17.013Z,10.50
2023-04-18T19:29:03.310Z,10.40
2023-04-18T19:31:49.584Z,10.40
2023-04-18T19:34:36.394Z,10.30
2023-04-18T19:37:22.447Z,10.20
2023-04-18T19:40:09.101Z,10.20
2023-04-18T19:42:55.120Z,10.20
2023-04-18T19:45:41.229Z,10.30
2023-04-18T19:48:27.005Z,10.30
2023-04-18T19:51:13.080Z,10.20
2023-04-18T19:54:10.157Z,10.10
2023-04-18T19:56:58.695Z,10.10
2023-04-18T19:59:45.150Z,10.10
2023-04-18T20:02:31.438Z,10.10
2023-04-18T20:05:19.077Z,10.10
2023-04-18T20:08:05.695Z,10.10
2023-04-18T20:10:51.758Z,10.00
2023-04-18T20:13:38.143Z,10.10
2023-04-18T20:16:24.648Z,10.00
2023-04-18T20:19:12.620Z,10.10
2023-04-18T20:21:59.044Z,10.10
2023-04-18T20:24:46.182Z,10.10
2023-04-18T20:27:32.063Z,10.00
2023-04-18T20:30:18.003Z,10.00
2023-04-18T20:33:04.122Z,10.10
2023-04-18T20:35:50.467Z,10.10
2023-04-18T20:38:36.876Z,10.10
2023-04-18T20:41:24.200Z,10.10
2023-04-18T20:44:10.694Z,10.10
2023-04-18T20:46:56.705Z,10.00
2023-04-18T20:49:43.018Z,10.00
2023-04-18T20:52:30.199Z,10.00
2023-04-18T20:55:16.803Z,10.00
2023-04-18T20:58:03.094Z,10.10
2023-04-18T21:00:48.981Z,10.00
2023-04-18T21:03:35.260Z,10.00
2023-04-18T21:06:22.120Z,9.90
2023-04-18T21:09:08.701Z,9.90
2023-04-18T21:11:55.124Z,10.00
2023-04-18T21:14:41.125Z,9.90
2023-04-18T21:17:27.151Z,9.90
2023-04-18T21:20:13.773Z,9.90
2023-04-18T21:22:59.678Z,9.90
2023-04-18T21:25:46.238Z,9.80
2023-04-18T21:28:32.396Z,9.90
2023-04-18T21:31:18.537Z,9.80
2023-04-18T21:34:05.855Z,9.80
2023-04-18T21:36:52.026Z,9.90
2023-04-18T21:39:38.305Z,9.90
2023-04-18T21:42:24.730Z,9.90
2023-04-18T21:45:11.649Z,9.90
2023-04-18T21:47:57.577Z,9.90
2023-04-18T21:50:43.852Z,9.90
2023-04-18T21:53:29.623Z,9.90
2023-04-18T21:56:17.009Z,9.90
2023-04-18T21:59:03.141Z,9.90
2023-04-18T22:01:49.384Z,9.90
2023-04-18T22:04:37.946Z,10.00
2023-04-18T22:07:24.607Z,10.00
2023-04-18T22:10:11.006Z,10.00
2023-04-18T22:12:58.542Z,10.00
2023-04-18T22:15:45.141Z,9.90
2023-04-18T22:18:33.984Z,9.80
2023-04-18T22:21:20.464Z,9.80
2023-04-18T22:24:07.480Z,9.80
2023-04-18T22:26:53.790Z,9.90
2023-04-18T22:29:39.702Z,9.90
2023-04-18T22:32:25.604Z,9.80
2023-04-18T22:35:11.884Z,9.80
2023-04-18T22:37:57.974Z,9.80
2023-04-18T22:40:44.310Z,9.80
2023-04-18T22:43:30.657Z,9.80
2023-04-18T22:46:16.551Z,9.80
2023-04-18T22:49:02.684Z,9.80
2023-04-18T22:51:48.623Z,9.80
2023-04-18T22:54:39.475Z,9.70
2023-04-18T22:57:25.872Z,9.60
2023-04-18T23:00:13.567Z,9.60
2023-04-18T23:02:59.810Z,9.60
2023-04-18T23:05:45.940Z,9.70
2023-04-18T23:08:32.629Z,9.70
2023-04-18T23:11:18.726Z,9.70
2023-04-18T23:14:04.731Z,9.70
2023-04-18T23:16:50.753Z,9.70
2023-04-18T23:19:36.755Z,9.70
2023-04-18T23:22:24.153Z,9.70
2023-04-18T23:25:10.328Z,9.70
2023-04-18T23:27:56.259Z,9.70
2023-04-18T23:30:42.242Z,9.80
2023-04-18T23:33:28.144Z,9.70
2023-04-18T23:36:14.247Z,9.70
2023-04-18T23:39:00.376Z,9.70
2023-04-18T23:41:46.412Z,9.60
2023-04-18T23:44:32.794Z,9.60
2023-04-18T23:47:19.094Z,9.60
2023-04-18T23:50:05.881Z,9.60
2023-04-18T23:52:51.953Z,9.60
2023-04-18T23:55:37.966Z,9.60
2023-04-18T23:58:23.831Z,9.50
